Time;durP1;ratioP1;P1;durP2;ratioP2;P2;SDS_P1;SDS_P2;PMS_P1;PMS_P2;Temp;Humidity;BMP_temperature;BMP_pressure;BME280_temperature;BME280_humidity;BME280_pressure;Samples;Min_cycle;Max_cycle;Signal;HPM_P1;HPM_P2
2023/12/02 00:02:01;;;;;;;30.67;19.83;;;;;;;;;;5157683;27;20498;-85
2023/12/02 00:04:27;;;;;;;32.33;18.37;;;;;;;;;;5139874;27;20422;-82
2023/12/02 00:06:53;;;;;;;28.90;16.57;;;;;;;;;;5157767;27;20415;-86
2023/12/02 00:09:19;;;;;;;27.63;16.17;;;;;;;;;;5138914;27;20423;-89
2023/12/02 00:11:49;;;;;;;27.40;19.40;;;;;;;;;;5157634;27;20460;-87
2023/12/02 00:14:15;;;;;;;34.53;19.10;;;;;;;;;;5139183;27;20411;-88
2023/12/02 00:16:41;;;;;;;24.53;17.40;;;;;;;;;;5158704;27;20461;-85
2023/12/02 00:19:07;;;;;;;28.80;17.10;;;;;;;;;;5139561;27;20409;-87
2023/12/02 00:21:33;;;;;;;28.33;17.70;;;;;;;;;;5157999;27;20501;-82
2023/12/02 00:23:59;;;;;;;28.90;17.13;;;;;;;;;;5156991;27;20404;-84
2023/12/02 00:26:28;;;;;;;32.10;17.93;;;;;;;;;;5157080;27;20408;-86
2023/12/02 00:28:54;;;;;;;28.60;16.90;;;;;;;;;;5156614;27;20411;-86
2023/12/02 00:31:20;;;;;;;29.97;17.63;;;;;;;;;;5156761;27;20786;-85
2023/12/02 00:33:45;;;;;;;33.37;19.07;;;;;;;;;;5138214;27;20445;-84
2023/12/02 00:36:11;;;;;;;30.27;19.97;;;;;;;;;;5156588;27;20421;-86
2023/12/02 00:38:37;;;;;;;35.07;19.27;;;;;;;;;;5156612;27;20446;-89
2023/12/02 00:41:03;;;;;;;30.73;19.50;;;;;;;;;;5139811;27;20495;-89
2023/12/02 00:43:29;;;;;;;26.47;17.77;;;;;;;;;;5158141;27;20404;-90
2023/12/02 00:45:55;;;;;;;30.53;18.30;;;;;;;;;;5157515;27;20430;-85
2023/12/02 00:48:21;;;;;;;30.23;19.00;;;;;;;;;;5157115;27;20885;-89
2023/12/02 00:50:47;;;;;;;35.53;19.10;;;;;;;;;;5156479;27;20487;-86
2023/12/02 00:53:13;;;;;;;29.70;17.30;;;;;;;;;;5118518;27;20876;-88
2023/12/02 00:55:39;;;;;;;27.43;18.93;;;;;;;;;;5118247;27;20425;-86
2023/12/02 00:58:05;;;;;;;28.23;18.30;;;;;;;;;;5118583;27;20418;-90
2023/12/02 01:00:31;;;;;;;25.73;16.93;;;;;;;;;;5136735;27;20477;-87
2023/12/02 01:02:57;;;;;;;30.63;18.50;;;;;;;;;;5118567;27;20417;-90
2023/12/02 01:05:23;;;;;;;30.40;19.00;;;;;;;;;;5118607;27;20433;-89
2023/12/02 01:07:49;;;;;;;28.23;18.90;;;;;;;;;;5118118;27;20766;-86
2023/12/02 01:10:15;;;;;;;30.40;17.90;;;;;;;;;;5136832;27;20545;-86
2023/12/02 01:12:41;;;;;;;24.97;18.40;;;;;;;;;;5118378;27;20425;-86
2023/12/02 01:15:07;;;;;;;32.10;17.90;;;;;;;;;;5136718;27;20414;-90
2023/12/02 01:17:36;;;;;;;38.93;19.13;;;;;;;;;;5136405;27;20493;-90
2023/12/02 01:20:02;;;;;;;31.73;18.80;;;;;;;;;;5136626;27;20428;-86
2023/12/02 01:22:28;;;;;;;28.67;17.23;;;;;;;;;;5117925;27;20432;-85
2023/12/02 01:24:54;;;;;;;30.63;17.80;;;;;;;;;;5117200;27;20423;-85
2023/12/02 01:27:20;;;;;;;35.80;18.63;;;;;;;;;;5135781;27;20415;-87
2023/12/02 01:29:46;;;;;;;29.00;17.53;;;;;;;;;;5135531;27;20402;-83
2023/12/02 01:32:13;;;;;;;28.60;16.97;;;;;;;;;;5135504;27;20998;-84
2023/12/02 01:34:39;;;;;;;28.80;18.30;;;;;;;;;;5135100;27;20404;-85
2023/12/02 01:37:05;;;;;;;25.40;15.97;;;;;;;;;;5135116;27;20901;-86
2023/12/02 01:39:31;;;;;;;25.87;16.87;;;;;;;;;;5116753;27;20407;-86
2023/12/02 01:41:57;;;;;;;28.63;16.43;;;;;;;;;;5135442;27;20943;-88
2023/12/02 01:44:22;;;;;;;24.13;17.37;;;;;;;;;;5136009;27;20426;-91
2023/12/02 01:46:48;;;;;;;28.67;16.67;;;;;;;;;;5136586;27;20411;-88
2023/12/02 01:49:14;;;;;;;23.87;15.00;;;;;;;;;;5136238;27;20407;-92
2023/12/02 01:51:41;;;;;;;25.70;17.20;;;;;;;;;;5136291;27;20448;-92
2023/12/02 01:54:07;;;;;;;29.40;18.10;;;;;;;;;;5135215;27;20501;-88
2023/12/02 01:56:36;;;;;;;27.27;17.90;;;;;;;;;;5117138;27;20463;-90
2023/12/02 01:59:02;;;;;;;29.33;17.23;;;;;;;;;;5134963;27;20751;-85
2023/12/02 02:01:28;;;;;;;28.40;17.80;;;;;;;;;;5134874;27;20482;-86
2023/12/02 02:03:55;;;;;;;25.30;15.40;;;;;;;;;;5135369;27;20411;-88
2023/12/02 02:06:22;;;;;;;28.13;16.87;;;;;;;;;;5135114;27;20414;-88
2023/12/02 02:08:48;;;;;;;23.70;15.37;;;;;;;;;;5134940;27;20412;-87
2023/12/02 02:11:14;;;;;;;21.70;14.40;;;;;;;;;;5134683;27;20839;-90
2023/12/02 02:13:40;;;;;;;22.40;13.83;;;;;;;;;;5135416;27;20488;-89
2023/12/02 02:16:09;;;;;;;20.83;14.20;;;;;;;;;;5135324;27;20490;-90
2023/12/02 02:18:37;;;;;;;23.50;14.03;;;;;;;;;;5135373;27;20424;-90
2023/12/02 02:21:04;;;;;;;26.93;16.10;;;;;;;;;;5106768;27;20492;-86
2023/12/02 02:23:30;;;;;;;22.20;14.80;;;;;;;;;;5150720;27;20416;-88
2023/12/02 02:25:55;;;;;;;21.73;13.50;;;;;;;;;;5155834;27;20419;-91
2023/12/02 02:28:22;;;;;;;23.73;14.90;;;;;;;;;;5155846;27;20885;-88
2023/12/02 02:30:48;;;;;;;16.83;12.40;;;;;;;;;;5155741;27;20763;-86
2023/12/02 02:33:14;;;;;;;21.90;13.13;;;;;;;;;;5136961;27;20415;-88
2023/12/02 02:35:40;;;;;;;19.20;11.40;;;;;;;;;;5155756;27;20426;-87
2023/12/02 02:38:06;;;;;;;18.93;11.43;;;;;;;;;;5155132;27;20875;-85
2023/12/02 02:40:32;;;;;;;14.43;10.30;;;;;;;;;;5155807;27;20446;-88
2023/12/02 02:42:58;;;;;;;17.60;11.83;;;;;;;;;;5156582;27;20410;-89
2023/12/02 02:45:24;;;;;;;16.37;10.23;;;;;;;;;;5157103;27;20402;-93
2023/12/02 02:47:50;;;;;;;19.83;11.10;;;;;;;;;;5167347;27;20417;-84
2023/12/02 02:50:16;;;;;;;19.90;12.70;;;;;;;;;;5152411;27;20453;-83
2023/12/02 02:52:43;;;;;;;18.47;10.80;;;;;;;;;;5171064;27;20399;-87
2023/12/02 02:55:09;;;;;;;12.30;9.07;;;;;;;;;;5167114;27;20412;-93
2023/12/02 02:57:35;;;;;;;20.47;12.33;;;;;;;;;;5155963;27;20409;-91
2023/12/02 03:00:00;;;;;;;13.23;10.13;;;;;;;;;;5137245;27;20558;-90
2023/12/02 03:02:27;;;;;;;14.17;11.37;;;;;;;;;;5140551;27;20515;-90
2023/12/02 03:04:52;;;;;;;16.30;11.90;;;;;;;;;;5135029;28;20892;-91
2023/12/02 03:07:19;;;;;;;17.57;10.70;;;;;;;;;;5115875;28;20454;-86
2023/12/02 03:09:45;;;;;;;13.50;10.57;;;;;;;;;;5134284;28;20495;-87
2023/12/02 03:12:11;;;;;;;14.73;9.27;;;;;;;;;;5134167;28;20412;-89
2023/12/02 03:14:38;;;;;;;15.00;9.23;;;;;;;;;;5134588;28;20893;-90
2023/12/02 03:17:07;;;;;;;17.27;11.30;;;;;;;;;;5134441;28;20418;-86
2023/12/02 03:19:33;;;;;;;17.30;11.70;;;;;;;;;;5100235;27;20421;-83
2023/12/02 03:21:59;;;;;;;14.80;10.07;;;;;;;;;;5134405;27;21027;-89
2023/12/02 03:24:25;;;;;;;16.40;10.83;;;;;;;;;;5140539;27;20503;-89
2023/12/02 03:26:51;;;;;;;16.77;10.80;;;;;;;;;;5159298;27;20431;-89
2023/12/02 03:29:17;;;;;;;16.87;10.10;;;;;;;;;;5159484;27;20505;-89
2023/12/02 03:31:43;;;;;;;14.43;9.80;;;;;;;;;;5159309;27;20411;-87
2023/12/02 03:34:09;;;;;;;18.17;10.37;;;;;;;;;;5159321;27;20449;-86
2023/12/02 03:36:38;;;;;;;17.23;11.10;;;;;;;;;;5159610;27;20411;-88
2023/12/02 03:39:05;;;;;;;14.60;10.73;;;;;;;;;;5159049;27;20413;-90
2023/12/02 03:41:31;;;;;;;16.43;10.20;;;;;;;;;;5159246;27;20907;-89
2023/12/02 03:43:57;;;;;;;23.43;11.93;;;;;;;;;;5136918;27;20419;-87
2023/12/02 03:46:22;;;;;;;17.73;10.27;;;;;;;;;;5138888;27;20460;-87
2023/12/02 03:48:48;;;;;;;15.93;10.37;;;;;;;;;;5138353;27;20460;-88
2023/12/02 03:51:14;;;;;;;14.30;10.10;;;;;;;;;;5138355;27;20501;-89
2023/12/02 03:53:40;;;;;;;12.87;9.27;;;;;;;;;;5124692;27;20505;-88
2023/12/02 03:56:06;;;;;;;18.03;11.53;;;;;;;;;;5141023;27;20416;-89
2023/12/02 03:58:32;;;;;;;17.10;10.97;;;;;;;;;;5137833;27;20414;-91
2023/12/02 04:00:58;;;;;;;17.60;11.07;;;;;;;;;;5137844;27;20471;-91
2023/12/02 04:03:24;;;;;;;18.13;12.10;;;;;;;;;;5137687;27;20401;-89
2023/12/02 04:05:50;;;;;;;15.57;11.60;;;;;;;;;;5158825;27;20899;-89
2023/12/02 04:08:17;;;;;;;16.20;10.27;;;;;;;;;;5139842;27;20421;-87
2023/12/02 04:10:43;;;;;;;18.00;12.87;;;;;;;;;;5140045;27;20409;-90
2023/12/02 04:13:08;;;;;;;15.30;9.30;;;;;;;;;;5158492;27;20417;-89
2023/12/02 04:15:35;;;;;;;14.83;9.73;;;;;;;;;;5158452;27;20411;-89
2023/12/02 04:18:01;;;;;;;14.30;9.60;;;;;;;;;;5158677;27;20396;-87
2023/12/02 04:20:27;;;;;;;16.57;11.80;;;;;;;;;;5125451;27;20467;-83
2023/12/02 04:22:53;;;;;;;15.33;10.07;;;;;;;;;;5129891;27;20439;-88
2023/12/02 04:25:19;;;;;;;14.80;10.00;;;;;;;;;;5157028;27;20903;-90
2023/12/02 04:27:46;;;;;;;15.17;11.10;;;;;;;;;;5157232;27;20522;-88
2023/12/02 04:30:12;;;;;;;18.00;13.40;;;;;;;;;;5139229;27;20410;-90
2023/12/02 04:32:38;;;;;;;13.87;9.60;;;;;;;;;;5158488;27;20797;-93
2023/12/02 04:35:05;;;;;;;19.13;12.10;;;;;;;;;;5158544;27;20871;-87
2023/12/02 04:37:35;;;;;;;19.40;11.10;;;;;;;;;;5157964;27;20495;-89
2023/12/02 04:40:01;;;;;;;19.10;12.87;;;;;;;;;;5140085;27;20421;-91
2023/12/02 04:42:27;;;;;;;15.87;10.80;;;;;;;;;;5158551;27;20540;-89
2023/12/02 04:44:53;;;;;;;16.30;10.57;;;;;;;;;;5158368;27;20870;-89
2023/12/02 04:47:19;;;;;;;17.10;11.20;;;;;;;;;;5158288;27;20411;-91
2023/12/02 04:49:45;;;;;;;16.13;11.20;;;;;;;;;;5159079;27;20411;-91
2023/12/02 04:52:10;;;;;;;17.20;10.63;;;;;;;;;;5159018;27;20408;-85
2023/12/02 04:54:36;;;;;;;18.53;12.20;;;;;;;;;;5159450;27;20502;-91
2023/12/02 04:57:02;;;;;;;18.10;10.40;;;;;;;;;;5159475;27;20492;-90
2023/12/02 04:59:28;;;;;;;17.77;11.50;;;;;;;;;;5159406;27;20412;-90
2023/12/02 05:01:57;;;;;;;14.23;11.10;;;;;;;;;;5159273;27;20507;-87
2023/12/02 05:04:25;;;;;;;16.00;10.83;;;;;;;;;;5132070;27;20424;-93
2023/12/02 05:06:52;;;;;;;17.40;12.17;;;;;;;;;;5143013;27;20451;-89
2023/12/02 05:09:21;;;;;;;15.53;11.33;;;;;;;;;;5157301;27;20434;-91
2023/12/02 05:11:48;;;;;;;17.13;11.80;;;;;;;;;;5157694;27;20401;-89
2023/12/02 05:14:14;;;;;;;19.47;12.10;;;;;;;;;;5157512;27;20533;-88
2023/12/02 05:16:46;;;;;;;15.83;11.43;;;;;;;;;;5139486;27;20937;-88
2023/12/02 05:19:12;;;;;;;20.67;11.93;;;;;;;;;;5139422;27;20405;-86
2023/12/02 05:21:38;;;;;;;21.30;12.60;;;;;;;;;;5139364;27;20892;-92
2023/12/02 05:24:04;;;;;;;18.00;11.07;;;;;;;;;;5139045;27;20411;-87
2023/12/02 05:26:31;;;;;;;18.40;12.10;;;;;;;;;;5117092;27;20440;-89
2023/12/02 05:28:57;;;;;;;19.37;12.20;;;;;;;;;;5156972;27;20802;-87
2023/12/02 05:31:24;;;;;;;18.17;12.53;;;;;;;;;;5156569;27;20429;-86
2023/12/02 05:33:50;;;;;;;16.50;11.37;;;;;;;;;;5156392;27;20400;-86
2023/12/02 05:36:16;;;;;;;19.10;11.40;;;;;;;;;;5156448;27;20417;-88
2023/12/02 05:38:41;;;;;;;19.97;11.13;;;;;;;;;;5156077;27;20491;-88
2023/12/02 05:41:07;;;;;;;19.37;12.37;;;;;;;;;;5156474;27;20472;-89
2023/12/02 05:43:33;;;;;;;19.10;10.90;;;;;;;;;;5156774;27;20407;-89
2023/12/02 05:45:59;;;;;;;19.27;13.07;;;;;;;;;;5155509;27;20409;-87
2023/12/02 05:48:25;;;;;;;19.77;12.63;;;;;;;;;;5156884;27;20400;-90
2023/12/02 05:50:51;;;;;;;20.47;12.27;;;;;;;;;;5156831;27;20456;-90
2023/12/02 05:53:17;;;;;;;20.23;13.20;;;;;;;;;;5157800;27;20432;-86
2023/12/02 05:55:43;;;;;;;19.23;12.50;;;;;;;;;;5141019;27;20416;-92
2023/12/02 05:58:09;;;;;;;22.37;12.40;;;;;;;;;;5160628;27;20500;-91
2023/12/02 06:00:35;;;;;;;20.70;13.17;;;;;;;;;;5159410;27;20985;-91
2023/12/02 06:03:01;;;;;;;20.20;12.63;;;;;;;;;;5138615;27;20498;-90
2023/12/02 06:05:27;;;;;;;21.30;13.13;;;;;;;;;;5138153;27;20431;-90
2023/12/02 06:07:53;;;;;;;16.30;10.73;;;;;;;;;;5156376;27;20901;-90
2023/12/02 06:10:19;;;;;;;17.80;11.13;;;;;;;;;;5138148;27;20889;-92
2023/12/02 06:12:45;;;;;;;15.33;10.80;;;;;;;;;;5156658;27;20896;-90
2023/12/02 06:15:11;;;;;;;22.60;12.93;;;;;;;;;;5156585;27;20411;-93
2023/12/02 06:17:46;;;;;;;20.77;14.30;;;;;;;;;;5138043;27;20419;-92
2023/12/02 06:20:13;;;;;;;20.00;11.17;;;;;;;;;;5156288;27;20396;-90
2023/12/02 06:22:39;;;;;;;16.43;12.03;;;;;;;;;;5155855;27;20907;-91
2023/12/02 06:25:05;;;;;;;18.30;11.17;;;;;;;;;;5137844;27;20516;-90
2023/12/02 06:27:33;;;;;;;19.30;12.23;;;;;;;;;;5155584;27;20414;-86
2023/12/02 06:30:00;;;;;;;19.70;12.83;;;;;;;;;;5155563;27;20742;-88
2023/12/02 06:32:25;;;;;;;18.93;11.60;;;;;;;;;;5155908;27;20400;-90
2023/12/02 06:34:51;;;;;;;18.00;11.80;;;;;;;;;;5155466;27;20399;-87
2023/12/02 06:37:17;;;;;;;19.70;11.67;;;;;;;;;;5155218;27;20967;-87
2023/12/02 06:39:43;;;;;;;19.50;12.40;;;;;;;;;;5155611;27;20412;-89
2023/12/02 06:42:09;;;;;;;17.00;12.53;;;;;;;;;;5095621;27;20463;-83
2023/12/02 06:44:35;;;;;;;18.93;11.10;;;;;;;;;;5155088;27;20416;-87
2023/12/02 06:47:01;;;;;;;20.20;12.30;;;;;;;;;;5155141;27;20803;-86
2023/12/02 06:49:27;;;;;;;13.37;10.80;;;;;;;;;;5155264;27;20420;-88
2023/12/02 06:51:53;;;;;;;20.40;13.17;;;;;;;;;;5155043;27;20453;-85
2023/12/02 06:54:19;;;;;;;24.83;13.40;;;;;;;;;;5155556;27;20958;-92
2023/12/02 06:56:45;;;;;;;23.70;12.47;;;;;;;;;;5155188;27;20904;-84
2023/12/02 06:59:12;;;;;;;19.10;12.03;;;;;;;;;;5155273;27;20392;-89
2023/12/02 07:01:40;;;;;;;22.33;12.70;;;;;;;;;;5136381;27;20471;-83
2023/12/02 07:04:06;;;;;;;22.07;12.63;;;;;;;;;;5146727;27;20396;-89
2023/12/02 07:06:32;;;;;;;24.03;11.97;;;;;;;;;;5155092;27;20419;-87
2023/12/02 07:08:58;;;;;;;19.57;11.93;;;;;;;;;;5154817;27;20796;-87
2023/12/02 07:11:24;;;;;;;20.97;12.27;;;;;;;;;;5155019;27;20407;-83
2023/12/02 07:13:50;;;;;;;20.33;12.10;;;;;;;;;;5155131;27;20404;-85
2023/12/02 07:16:16;;;;;;;21.40;13.10;;;;;;;;;;5155254;27;20466;-86
2023/12/02 07:18:42;;;;;;;19.47;12.90;;;;;;;;;;5155346;27;20412;-87
2023/12/02 07:21:09;;;;;;;22.20;13.23;;;;;;;;;;5154537;27;20849;-85
2023/12/02 07:23:36;;;;;;;22.50;13.77;;;;;;;;;;5154416;27;20444;-88
2023/12/02 07:26:02;;;;;;;23.80;13.83;;;;;;;;;;5136434;27;20400;-91
2023/12/02 07:28:28;;;;;;;22.03;11.93;;;;;;;;;;5155967;27;20412;-84
2023/12/02 07:30:55;;;;;;;25.00;13.70;;;;;;;;;;5138150;27;20948;-88
2023/12/02 07:33:21;;;;;;;25.00;14.20;;;;;;;;;;5163804;27;20424;-84
2023/12/02 07:35:47;;;;;;;20.33;12.43;;;;;;;;;;5156711;27;20433;-83
2023/12/02 07:38:13;;;;;;;22.00;13.30;;;;;;;;;;5173338;27;20408;-83
2023/12/02 07:40:39;;;;;;;21.60;14.20;;;;;;;;;;5173053;27;20533;-89
2023/12/02 07:43:05;;;;;;;25.20;13.70;;;;;;;;;;5155756;27;20404;-88
2023/12/02 07:45:31;;;;;;;24.07;13.00;;;;;;;;;;5155570;27;20176;-90
2023/12/02 07:47:57;;;;;;;27.33;16.87;;;;;;;;;;5137433;27;20407;-91
2023/12/02 07:50:23;;;;;;;20.10;15.07;;;;;;;;;;5113760;27;20209;-89
2023/12/02 07:52:49;;;;;;;29.08;18.83;;;;;;;;;;5134479;27;20404;-88
2023/12/02 07:55:15;;;;;;;28.57;15.03;;;;;;;;;;5137153;27;20664;-90
2023/12/02 07:57:41;;;;;;;21.47;13.60;;;;;;;;;;5155716;27;20446;-90
2023/12/02 08:00:11;;;;;;;22.20;15.13;;;;;;;;;;5155014;27;20439;-92
2023/12/02 08:02:37;;;;;;;24.37;14.87;;;;;;;;;;5155657;27;20419;-89
2023/12/02 08:05:03;;;;;;;22.90;14.07;;;;;;;;;;5136208;27;20412;-89
2023/12/02 08:07:29;;;;;;;21.47;13.17;;;;;;;;;;5154357;27;20437;-87
2023/12/02 08:09:55;;;;;;;28.60;17.52;;;;;;;;;;5157727;27;20396;-90
2023/12/02 08:12:26;;;;;;;19.50;12.50;;;;;;;;;;5154905;27;20185;-88
2023/12/02 08:14:52;;;;;;;21.27;12.17;;;;;;;;;;5158424;27;20416;-88
2023/12/02 08:17:18;;;;;;;19.50;12.83;;;;;;;;;;5139910;27;20507;-88
2023/12/02 08:19:44;;;;;;;24.77;15.95;;;;;;;;;;5138018;27;21043;-91
2023/12/02 08:22:12;;;;;;;24.00;15.40;;;;;;;;;;5158225;27;20206;-94
2023/12/02 08:24:42;;;;;;;18.47;11.20;;;;;;;;;;5158321;27;20491;-87
2023/12/02 08:27:08;;;;;;;23.00;13.43;;;;;;;;;;5158214;27;20495;-87
2023/12/02 08:29:34;;;;;;;21.07;11.83;;;;;;;;;;5157827;27;20396;-88
2023/12/02 08:32:00;;;;;;;25.30;13.83;;;;;;;;;;5158142;27;20400;-84
2023/12/02 08:34:26;;;;;;;24.27;13.20;;;;;;;;;;5157745;27;20419;-88
2023/12/02 08:36:52;;;;;;;20.37;12.30;;;;;;;;;;5138499;27;20408;-89
2023/12/02 08:39:18;;;;;;;23.00;12.90;;;;;;;;;;5157674;27;20419;-91
2023/12/02 08:41:44;;;;;;;21.27;12.07;;;;;;;;;;5158062;27;20467;-89
2023/12/02 08:44:10;;;;;;;23.30;12.90;;;;;;;;;;5158132;27;20408;-85
2023/12/02 08:46:38;;;;;;;23.97;15.00;;;;;;;;;;5157745;27;20419;-89
2023/12/02 08:49:08;;;;;;;22.17;13.47;;;;;;;;;;5139712;27;20914;-85
2023/12/02 08:51:34;;;;;;;21.83;13.50;;;;;;;;;;5098588;27;20428;-89
2023/12/02 08:54:00;;;;;;;21.70;12.03;;;;;;;;;;5157498;27;20407;-83
2023/12/02 08:56:27;;;;;;;28.10;14.73;;;;;;;;;;5157670;27;20408;-86
2023/12/02 08:58:59;;;;;;;25.43;13.47;;;;;;;;;;5139530;27;20912;-87
2023/12/02 09:01:25;;;;;;;22.70;13.40;;;;;;;;;;5156613;27;20818;-87
2023/12/02 09:03:51;;;;;;;21.67;12.60;;;;;;;;;;5157912;27;20406;-93
2023/12/02 09:06:17;;;;;;;21.23;13.43;;;;;;;;;;5156859;27;20432;-83
2023/12/02 09:08:43;;;;;;;20.33;13.57;;;;;;;;;;5139877;27;20412;-84
2023/12/02 09:11:09;;;;;;;24.33;13.20;;;;;;;;;;5157805;27;20413;-87
2023/12/02 09:13:43;;;;;;;24.37;14.40;;;;;;;;;;5138673;27;20410;-89
2023/12/02 09:16:15;;;;;;;20.17;11.23;;;;;;;;;;5157386;27;20415;-88
2023/12/02 09:18:41;;;;;;;24.07;14.20;;;;;;;;;;5148948;27;20461;-90
2023/12/02 09:21:25;;;;;;;20.87;12.07;;;;;;;;;;5157453;27;20459;-90
2023/12/02 09:23:54;;;;;;;21.93;13.63;;;;;;;;;;5160230;27;20752;-87
2023/12/02 09:26:27;;;;;;;19.90;12.40;;;;;;;;;;5160030;27;20874;-89
2023/12/02 09:28:56;;;;;;;20.77;12.90;;;;;;;;;;5158294;27;20909;-88
2023/12/02 09:31:22;;;;;;;19.07;12.07;;;;;;;;;;5158751;27;20398;-85
2023/12/02 09:33:57;;;;;;;25.47;14.47;;;;;;;;;;5139610;27;20901;-84
2023/12/02 09:36:37;;;;;;;21.47;13.30;;;;;;;;;;5155744;27;20435;-87
2023/12/02 09:39:09;;;;;;;22.37;14.10;;;;;;;;;;5140129;27;20458;-86
2023/12/02 09:41:42;;;;;;;24.10;14.73;;;;;;;;;;5157544;27;20474;-85
2023/12/02 09:44:32;;;;;;;25.30;15.00;;;;;;;;;;5152917;27;20428;-87
2023/12/02 09:47:09;;;;;;;17.83;12.30;;;;;;;;;;5164656;27;20895;-93
2023/12/02 09:49:44;;;;;;;18.20;12.73;;;;;;;;;;5124454;27;20405;-89
2023/12/02 09:54:55;;;;;;;23.33;13.40;;;;;;;;;;5094162;28;20543;-87
2023/12/02 09:57:30;;;;;;;18.70;13.20;;;;;;;;;;5094215;28;20469;-89
2023/12/02 09:59:59;;;;;;;22.07;13.60;;;;;;;;;;5094885;28;20412;-85
2023/12/02 10:02:44;;;;;;;22.87;15.10;;;;;;;;;;5094605;28;20469;-87
2023/12/02 10:05:11;;;;;;;21.27;14.07;;;;;;;;;;5094921;28;20416;-87
2023/12/02 10:07:52;;;;;;;22.40;13.97;;;;;;;;;;5093560;28;20458;-85
2023/12/02 10:10:22;;;;;;;21.57;14.97;;;;;;;;;;5094849;28;20778;-91
2023/12/02 10:13:07;;;;;;;24.67;14.17;;;;;;;;;;5094529;28;20496;-86
2023/12/02 10:15:35;;;;;;;23.10;15.57;;;;;;;;;;5095000;28;20404;-86
2023/12/02 10:18:14;;;;;;;25.10;15.03;;;;;;;;;;5094900;28;20434;-90
2023/12/02 10:20:43;;;;;;;23.03;13.37;;;;;;;;;;5084912;28;20497;-90
2023/12/02 10:23:21;;;;;;;23.27;15.93;;;;;;;;;;5093866;28;20479;-83
2023/12/02 10:25:53;;;;;;;22.10;14.10;;;;;;;;;;5076765;28;20406;-86
2023/12/02 10:28:24;;;;;;;22.70;14.10;;;;;;;;;;5089494;28;20753;-90
2023/12/02 10:30:51;;;;;;;23.90;15.03;;;;;;;;;;5095081;28;20399;-90
2023/12/02 10:33:27;;;;;;;22.90;13.50;;;;;;;;;;5095073;28;20453;-90
2023/12/02 10:35:59;;;;;;;20.20;13.60;;;;;;;;;;5093045;28;20471;-86
2023/12/02 10:38:24;;;;;;;23.20;14.10;;;;;;;;;;5094326;28;20503;-89
2023/12/02 10:41:13;;;;;;;23.90;14.07;;;;;;;;;;5077110;28;20527;-91
2023/12/02 10:43:41;;;;;;;20.40;13.40;;;;;;;;;;5049352;28;20180;-82
2023/12/02 10:46:08;;;;;;;24.30;14.20;;;;;;;;;;5092872;28;21780;-84
2023/12/02 10:48:36;;;;;;;22.20;15.13;;;;;;;;;;5090359;28;20418;-85
2023/12/02 10:51:02;;;;;;;23.00;14.60;;;;;;;;;;5092210;28;20421;-85
2023/12/02 10:53:29;;;;;;;21.10;13.47;;;;;;;;;;5074309;28;20442;-85
2023/12/02 10:55:59;;;;;;;21.50;13.90;;;;;;;;;;5092405;28;20506;-85
2023/12/02 10:58:25;;;;;;;19.23;13.07;;;;;;;;;;5090102;28;20931;-84
2023/12/02 11:00:56;;;;;;;24.53;15.00;;;;;;;;;;5092080;28;20456;-85
2023/12/02 11:03:28;;;;;;;23.37;15.80;;;;;;;;;;5089309;28;20472;-85
2023/12/02 11:06:12;;;;;;;25.37;15.50;;;;;;;;;;5092489;28;20409;-84
2023/12/02 11:08:47;;;;;;;17.53;13.63;;;;;;;;;;5092247;28;20495;-82
2023/12/02 11:11:18;;;;;;;24.93;15.03;;;;;;;;;;5096392;28;20419;-93
2023/12/02 11:13:48;;;;;;;21.40;14.10;;;;;;;;;;5092368;28;20427;-84
2023/12/02 11:16:19;;;;;;;25.37;16.23;;;;;;;;;;5092185;28;20454;-84
2023/12/02 11:18:45;;;;;;;24.30;15.30;;;;;;;;;;5090197;28;20470;-83
2023/12/02 11:21:16;;;;;;;18.87;12.80;;;;;;;;;;5091899;28;20468;-85
2023/12/02 11:23:56;;;;;;;21.83;14.50;;;;;;;;;;5089827;28;20499;-83
2023/12/02 11:26:32;;;;;;;24.83;15.00;;;;;;;;;;5092073;28;20402;-83
2023/12/02 11:29:15;;;;;;;19.50;14.03;;;;;;;;;;5092224;28;20443;-82
2023/12/02 11:31:51;;;;;;;23.23;13.90;;;;;;;;;;5092190;28;20412;-82
2023/12/02 11:34:40;;;;;;;24.90;16.53;;;;;;;;;;5073961;28;20501;-83
2023/12/02 11:37:12;;;;;;;23.10;14.90;;;;;;;;;;5089048;28;20411;-76
2023/12/02 11:39:43;;;;;;;20.33;12.80;;;;;;;;;;5091945;28;20417;-76
2023/12/02 11:42:17;;;;;;;19.77;13.40;;;;;;;;;;5089926;28;20488;-81
2023/12/02 11:45:04;;;;;;;21.27;14.77;;;;;;;;;;5050030;28;20419;-83
2023/12/02 11:47:48;;;;;;;25.70;15.37;;;;;;;;;;5080876;28;20497;-83
2023/12/02 11:50:32;;;;;;;22.93;14.00;;;;;;;;;;5093170;28;20412;-82
2023/12/02 11:53:04;;;;;;;23.73;15.63;;;;;;;;;;5093011;28;20565;-83
2023/12/02 11:55:33;;;;;;;21.30;14.80;;;;;;;;;;5094800;28;20410;-83
2023/12/02 11:58:17;;;;;;;19.30;14.03;;;;;;;;;;5095375;28;20476;-83
2023/12/02 12:00:54;;;;;;;18.47;12.27;;;;;;;;;;5093063;28;20454;-82
2023/12/02 12:03:38;;;;;;;24.80;12.20;;;;;;;;;;5095440;28;20744;-82
2023/12/02 12:06:11;;;;;;;20.47;11.60;;;;;;;;;;5092673;28;20968;-82
2023/12/02 12:08:42;;;;;;;15.70;10.50;;;;;;;;;;5094819;28;20406;-83
2023/12/02 12:11:12;;;;;;;17.40;10.57;;;;;;;;;;5095237;28;20743;-82
2023/12/02 12:13:41;;;;;;;13.93;10.73;;;;;;;;;;5095406;28;20420;-82
2023/12/02 12:16:13;;;;;;;12.80;9.83;;;;;;;;;;5095229;28;20411;-82
2023/12/02 12:18:39;;;;;;;11.33;7.87;;;;;;;;;;5095383;28;20410;-82
2023/12/02 12:21:05;;;;;;;13.90;8.73;;;;;;;;;;5094584;28;20900;-81
2023/12/02 12:23:32;;;;;;;12.30;7.57;;;;;;;;;;5105719;28;20882;-82
2023/12/02 12:26:03;;;;;;;9.80;6.90;;;;;;;;;;5095645;28;20422;-84
2023/12/02 12:28:31;;;;;;;11.10;7.27;;;;;;;;;;5095315;28;20890;-82
2023/12/02 12:31:00;;;;;;;9.60;6.00;;;;;;;;;;5095407;28;20413;-82
2023/12/02 12:33:29;;;;;;;8.67;6.70;;;;;;;;;;5092348;28;20394;-82
2023/12/02 12:35:55;;;;;;;9.93;6.50;;;;;;;;;;5094764;28;20407;-82
2023/12/02 12:38:22;;;;;;;7.80;5.77;;;;;;;;;;5094998;28;20416;-83
2023/12/02 12:40:48;;;;;;;8.93;5.90;;;;;;;;;;5095262;28;21003;-83
2023/12/02 12:43:14;;;;;;;10.97;5.70;;;;;;;;;;5094828;28;20407;-82
2023/12/02 12:45:40;;;;;;;8.23;5.23;;;;;;;;;;5095033;28;20436;-83
2023/12/02 12:48:07;;;;;;;8.03;5.80;;;;;;;;;;5094943;28;20900;-83
2023/12/02 12:50:33;;;;;;;7.03;5.17;;;;;;;;;;5094791;28;20406;-82
2023/12/02 12:53:10;;;;;;;10.23;5.57;;;;;;;;;;5094179;28;20453;-82
2023/12/02 12:55:37;;;;;;;7.97;5.67;;;;;;;;;;5093135;28;20392;-82
2023/12/02 12:58:07;;;;;;;7.97;5.50;;;;;;;;;;5094711;28;20408;-82
2023/12/02 13:00:35;;;;;;;7.60;5.50;;;;;;;;;;5053413;28;20431;-81
2023/12/02 13:03:03;;;;;;;7.87;5.20;;;;;;;;;;5093830;28;20426;-82
2023/12/02 13:05:35;;;;;;;9.73;6.20;;;;;;;;;;5093596;28;20759;-82
2023/12/02 13:08:08;;;;;;;7.80;4.60;;;;;;;;;;5093333;28;20415;-82
2023/12/02 13:10:35;;;;;;;8.77;5.97;;;;;;;;;;5076307;28;20400;-81
2023/12/02 13:13:02;;;;;;;7.80;5.93;;;;;;;;;;5094219;28;20921;-83
2023/12/02 13:15:29;;;;;;;7.40;4.70;;;;;;;;;;5094288;28;20905;-81
2023/12/02 13:17:55;;;;;;;10.70;6.17;;;;;;;;;;5094343;28;20443;-81
2023/12/02 13:20:22;;;;;;;8.23;5.93;;;;;;;;;;5094050;28;20755;-82
2023/12/02 13:22:49;;;;;;;7.93;5.27;;;;;;;;;;5093784;28;20457;-81
2023/12/02 13:25:25;;;;;;;6.30;4.50;;;;;;;;;;5075276;28;20404;-83
2023/12/02 13:27:55;;;;;;;7.33;4.43;;;;;;;;;;5092802;28;20447;-82
2023/12/02 13:30:23;;;;;;;7.90;3.90;;;;;;;;;;5093798;28;20414;-82
2023/12/02 13:32:49;;;;;;;6.03;3.10;;;;;;;;;;5093705;28;20411;-84
2023/12/02 13:35:15;;;;;;;6.37;4.20;;;;;;;;;;5093853;28;20498;-85
2023/12/02 13:38:00;;;;;;;7.43;4.50;;;;;;;;;;5094692;28;20975;-87
2023/12/02 13:40:38;;;;;;;9.23;4.70;;;;;;;;;;5094338;28;20402;-83
2023/12/02 13:43:06;;;;;;;5.97;3.60;;;;;;;;;;5093671;28;20414;-85
2023/12/02 13:45:33;;;;;;;5.73;4.20;;;;;;;;;;5074306;28;20579;-83
2023/12/02 13:48:12;;;;;;;7.43;4.53;;;;;;;;;;5094520;28;20417;-87
2023/12/02 13:50:56;;;;;;;6.37;4.23;;;;;;;;;;5092851;28;20931;-86
2023/12/02 13:53:28;;;;;;;6.90;4.10;;;;;;;;;;5075724;28;20954;-84
2023/12/02 13:56:13;;;;;;;6.97;4.60;;;;;;;;;;5091218;28;20422;-82
2023/12/02 13:58:41;;;;;;;6.07;4.27;;;;;;;;;;5091277;28;20876;-84
2023/12/02 14:01:11;;;;;;;5.17;4.20;;;;;;;;;;5053188;28;20884;-83
2023/12/02 14:03:55;;;;;;;6.17;4.40;;;;;;;;;;5093507;28;20414;-82
2023/12/02 14:06:24;;;;;;;7.50;5.10;;;;;;;;;;5091981;28;20912;-83
2023/12/02 14:08:57;;;;;;;6.10;4.20;;;;;;;;;;5093439;28;20419;-82
2023/12/02 14:11:32;;;;;;;7.07;4.43;;;;;;;;;;5092178;28;20455;-82
2023/12/02 14:14:19;;;;;;;9.57;5.30;;;;;;;;;;5092120;28;20496;-82
2023/12/02 14:16:57;;;;;;;6.40;4.03;;;;;;;;;;5093196;28;20413;-82
2023/12/02 14:19:39;;;;;;;6.97;4.10;;;;;;;;;;5093534;28;20403;-84
2023/12/02 14:22:12;;;;;;;7.87;4.90;;;;;;;;;;5092896;28;20505;-81
2023/12/02 14:24:48;;;;;;;7.67;4.90;;;;;;;;;;5092034;28;20421;-83
2023/12/02 14:27:31;;;;;;;8.07;5.10;;;;;;;;;;5090413;28;20431;-85
2023/12/02 14:30:05;;;;;;;7.43;5.63;;;;;;;;;;5075191;28;20449;-82
2023/12/02 14:32:42;;;;;;;5.93;4.60;;;;;;;;;;5093097;28;20433;-84